Time;durP1;ratioP1;P1;durP2;ratioP2;P2;SDS_P1;SDS_P2;PMS_P1;PMS_P2;Temp;Humidity;BMP_temperature;BMP_pressure;BME280_temperature;BME280_humidity;BME280_pressure;Samples;Min_cycle;Max_cycle;Signal;HPM_P1;HPM_P2
2024/04/01 00:00:34;;;;;;;9.23;5.57;;;16.90;80.60;;;;;;5021427;28;20366;-73
2024/04/01 00:03:00;;;;;;;9.80;4.73;;;16.90;80.60;;;;;;5020473;28;20038;-73
2024/04/01 00:05:26;;;;;;;7.83;4.63;;;16.90;80.50;;;;;;5022129;28;20022;-73
2024/04/01 00:07:52;;;;;;;9.17;4.50;;;16.90;80.50;;;;;;5022149;28;21099;-73
2024/04/01 00:10:21;;;;;;;6.77;4.33;;;16.90;80.50;;;;;;5024744;28;20707;-73
2024/04/01 00:12:47;;;;;;;6.45;4.57;;;16.90;80.60;;;;;;5028568;28;20433;-74
2024/04/01 00:15:14;;;;;;;9.97;4.90;;;16.90;80.60;;;;;;5029942;28;20034;-73
2024/04/01 00:17:40;;;;;;;7.60;4.70;;;16.90;80.70;;;;;;5026354;28;20025;-74
2024/04/01 00:20:06;;;;;;;8.30;5.28;;;16.80;80.70;;;;;;5025756;28;20033;-74
2024/04/01 00:22:32;;;;;;;;;;;16.80;80.70;;;;;;5024265;28;20383;-74
2024/04/01 00:24:58;;;;;;;8.38;4.10;;;16.80;80.60;;;;;;5019189;28;19913;-74
2024/04/01 00:27:24;;;;;;;7.30;4.20;;;16.80;80.70;;;;;;5023614;28;20053;-74
2024/04/01 00:29:49;;;;;;;7.43;4.03;;;16.80;80.60;;;;;;5020467;28;20034;-73
2024/04/01 00:32:15;;;;;;;6.07;4.30;;;16.80;80.50;;;;;;5018181;28;20047;-74
2024/04/01 00:34:41;;;;;;;6.60;4.07;;;16.80;80.40;;;;;;5026468;28;20029;-74
2024/04/01 00:37:07;;;;;;;7.53;4.40;;;16.80;80.40;;;;;;5020564;28;20356;-73
2024/04/01 00:39:32;;;;;;;8.60;5.10;;;16.80;80.50;;;;;;5026181;28;20053;-73
2024/04/01 00:41:58;;;;;;;6.07;4.30;;;16.80;80.40;;;;;;5026180;28;20403;-74
2024/04/01 00:44:24;;;;;;;6.17;4.63;;;16.80;80.40;;;;;;5020611;28;20868;-74
2024/04/01 00:46:50;;;;;;;5.03;3.57;;;16.70;80.30;;;;;;5024562;28;20025;-74
2024/04/01 00:49:16;;;;;;;;;;;16.70;80.40;;;;;;5026925;28;20553;-73
2024/04/01 00:51:43;;;;;;;5.13;3.80;;;16.80;80.20;;;;;;5024814;28;19913;-74
2024/04/01 00:54:09;;;;;;;8.70;4.20;;;16.70;80.40;;;;;;5019965;28;20041;-73
2024/04/01 00:56:35;;;;;;;8.30;4.13;;;16.70;80.50;;;;;;5029576;28;20021;-74
2024/04/01 00:59:03;;;;;;;8.23;4.03;;;16.70;80.50;;;;;;5026472;28;20037;-74
2024/04/01 01:01:31;;;;;;;7.20;3.75;;;16.70;80.40;;;;;;5022186;28;20040;-74
2024/04/01 01:03:59;;;;;;;5.70;3.63;;;16.70;80.40;;;;;;5024828;28;20347;-74
2024/04/01 01:06:26;;;;;;;5.60;3.90;;;16.70;80.50;;;;;;5021100;28;20034;-74
2024/04/01 01:08:52;;;;;;;6.50;3.75;;;16.70;80.40;;;;;;5023625;28;20030;-74
2024/04/01 01:11:18;;;;;;;6.72;3.95;;;16.70;80.40;;;;;;5021414;28;20032;-74
2024/04/01 01:13:44;;;;;;;7.43;3.30;;;16.60;80.50;;;;;;5023484;28;20387;-74
2024/04/01 01:16:10;;;;;;;5.00;3.57;;;16.70;80.40;;;;;;5020766;28;20471;-74
2024/04/01 01:18:36;;;;;;;5.43;3.60;;;16.60;80.40;;;;;;5025356;28;20038;-74
2024/04/01 01:21:02;;;;;;;9.02;3.95;;;16.60;80.40;;;;;;5017992;28;20032;-74
2024/04/01 01:23:28;;;;;;;7.57;4.10;;;16.60;80.30;;;;;;5020385;28;20076;-74
2024/04/01 01:25:54;;;;;;;9.07;3.73;;;16.60;80.40;;;;;;5028985;28;20438;-73
2024/04/01 01:28:20;;;;;;;4.73;3.00;;;16.60;80.40;;;;;;5025797;28;20048;-74
2024/04/01 01:30:46;;;;;;;5.07;3.15;;;16.60;80.40;;;;;;5025381;28;20117;-73
2024/04/01 01:33:12;;;;;;;5.00;3.30;;;16.60;80.40;;;;;;5024220;28;20533;-73
2024/04/01 01:35:39;;;;;;;5.00;3.45;;;16.60;80.50;;;;;;5027077;28;20025;-74
2024/04/01 01:38:04;;;;;;;6.00;3.33;;;16.60;80.60;;;;;;5026693;28;20021;-74
2024/04/01 01:40:30;;;;;;;6.03;3.67;;;16.60;80.60;;;;;;5019014;28;20025;-73
2024/04/01 01:42:56;;;;;;;4.37;3.33;;;16.50;80.50;;;;;;5022084;28;20025;-74
2024/04/01 01:45:22;;;;;;;8.67;3.13;;;16.60;80.50;;;;;;5025978;28;20033;-73
2024/04/01 01:47:48;;;;;;;7.47;3.85;;;16.50;80.50;;;;;;5026119;28;20897;-73
2024/04/01 01:50:14;;;;;;;4.73;3.23;;;16.50;80.50;;;;;;5027593;28;20112;-74
2024/04/01 01:52:39;;;;;;;6.80;3.00;;;16.50;80.50;;;;;;5022600;28;20087;-73
2024/04/01 01:55:06;;;;;;;6.07;3.03;;;16.50;80.50;;;;;;5022033;28;20351;-73
2024/04/01 01:57:32;;;;;;;5.38;3.25;;;16.50;80.40;;;;;;5019219;28;20026;-74
2024/04/01 01:59:59;;;;;;;6.97;3.17;;;16.50;80.40;;;;;;5022100;28;20037;-73
2024/04/01 02:02:25;;;;;;;4.28;2.97;;;16.50;80.30;;;;;;5025766;28;20079;-74
2024/04/01 02:04:50;;;;;;;4.50;2.92;;;16.50;80.30;;;;;;5025139;28;20034;-74
2024/04/01 02:07:16;;;;;;;4.07;2.83;;;16.50;80.20;;;;;;5018538;28;20467;-74
2024/04/01 02:09:42;;;;;;;6.70;3.37;;;16.50;80.30;;;;;;5027459;28;20041;-74
2024/04/01 02:12:08;;;;;;;6.50;2.72;;;16.50;80.20;;;;;;5026306;28;20038;-74
2024/04/01 02:14:38;;;;;;;6.63;2.87;;;16.50;80.20;;;;;;5026714;28;20477;-74
2024/04/01 02:17:07;;;;;;;4.55;2.58;;;16.40;80.30;;;;;;5025181;28;20100;-74
2024/04/01 02:19:36;;;;;;;7.30;3.13;;;16.40;80.30;;;;;;5030000;28;20049;-73
2024/04/01 02:22:03;;;;;;;4.00;2.95;;;16.40;80.30;;;;;;5031463;28;20076;-73
2024/04/01 02:24:29;;;;;;;4.47;2.50;;;16.40;80.20;;;;;;5027990;28;20040;-74
2024/04/01 02:26:55;;;;;;;3.43;2.40;;;16.40;80.30;;;;;;5031202;28;20021;-73
2024/04/01 02:29:21;;;;;;;3.20;2.45;;;16.40;80.30;;;;;;5027786;28;20033;-73
2024/04/01 02:31:47;;;;;;;2.87;2.17;;;16.40;80.30;;;;;;5023450;28;20033;-73
2024/04/01 02:34:13;;;;;;;6.57;2.80;;;16.40;80.20;;;;;;5025608;28;20674;-74
2024/04/01 02:36:39;;;;;;;4.83;2.80;;;16.40;80.20;;;;;;5024177;28;20034;-74
2024/04/01 02:39:05;;;;;;;4.50;2.53;;;16.30;80.20;;;;;;5026749;28;20025;-74
2024/04/01 02:41:33;;;;;;;3.65;2.65;;;16.30;80.10;;;;;;5028649;28;20084;-73
2024/04/01 02:43:59;;;;;;;4.25;2.65;;;16.30;80.10;;;;;;5029477;28;20036;-73
2024/04/01 02:46:25;;;;;;;4.80;2.93;;;16.30;80.00;;;;;;5029818;28;20021;-73
2024/04/01 02:48:51;;;;;;;3.33;2.00;;;16.30;80.10;;;;;;5030376;28;20032;-73
2024/04/01 02:51:17;;;;;;;3.00;2.23;;;16.30;80.20;;;;;;5030442;28;20037;-73
2024/04/01 02:53:47;;;;;;;4.77;2.57;;;16.30;80.00;;;;;;5027523;28;20034;-72
2024/04/01 02:56:16;;;;;;;4.40;2.15;;;16.30;80.20;;;;;;5025818;28;20116;-74
2024/04/01 02:58:45;;;;;;;6.18;3.00;;;16.30;80.20;;;;;;5027339;28;20048;-73
2024/04/01 03:01:11;;;;;;;5.18;2.75;;;16.30;80.20;;;;;;5029808;28;20344;-74
2024/04/01 03:03:37;;;;;;;3.83;2.42;;;16.30;80.20;;;;;;5029918;28;20068;-73
2024/04/01 03:06:04;;;;;;;5.30;2.88;;;16.30;80.10;;;;;;5022814;28;20112;-73
2024/04/01 03:08:30;;;;;;;4.40;2.58;;;16.30;80.10;;;;;;5030524;28;20035;-73
2024/04/01 03:11:00;;;;;;;3.50;2.47;;;16.30;80.20;;;;;;5016114;28;20041;-74
2024/04/01 03:13:27;;;;;;;3.33;2.35;;;16.30;80.20;;;;;;5024460;28;20032;-73
2024/04/01 03:15:56;;;;;;;3.38;2.30;;;16.20;80.10;;;;;;5029104;28;20030;-73
2024/04/01 03:18:22;;;;;;;4.07;2.00;;;16.20;80.00;;;;;;5024689;28;20161;-74
2024/04/01 03:20:48;;;;;;;;;;;16.20;79.90;;;;;;5019128;28;20026;-73
2024/04/01 03:23:17;;;;;;;3.53;2.30;;;16.20;79.90;;;;;;5029280;28;20062;-74
2024/04/01 03:25:49;;;;;;;2.95;2.00;;;16.20;80.00;;;;;;5029385;28;20033;-74
2024/04/01 03:28:15;;;;;;;2.80;2.10;;;16.20;80.00;;;;;;5023884;28;20025;-73
2024/04/01 03:30:40;;;;;;;2.73;2.17;;;16.20;80.00;;;;;;5028538;28;20036;-73
2024/04/01 03:33:06;;;;;;;2.80;2.10;;;16.20;80.00;;;;;;5026953;28;20026;-74
2024/04/01 03:35:32;;;;;;;2.85;2.13;;;16.20;80.00;;;;;;5024627;28;20029;-74
2024/04/01 03:37:58;;;;;;;2.30;1.80;;;16.20;80.00;;;;;;5026827;28;20033;-74
2024/04/01 03:40:24;;;;;;;2.70;2.08;;;16.20;80.00;;;;;;5026742;28;20026;-74
2024/04/01 03:42:50;;;;;;;3.47;2.30;;;16.20;80.10;;;;;;5023355;28;20033;-74
2024/04/01 03:45:15;;;;;;;2.57;2.20;;;16.10;80.00;;;;;;5027340;28;20033;-74
2024/04/01 03:47:41;;;;;;;5.77;2.30;;;16.20;80.00;;;;;;5027103;28;20029;-74
2024/04/01 03:50:11;;;;;;;2.57;2.07;;;16.20;80.00;;;;;;5021835;28;20042;-74
2024/04/01 03:52:39;;;;;;;3.00;1.80;;;16.10;79.90;;;;;;5026294;28;20033;-73
2024/04/01 03:55:07;;;;;;;2.83;2.08;;;16.10;79.90;;;;;;5023146;28;20482;-73
2024/04/01 03:57:32;;;;;;;3.38;2.28;;;16.10;79.90;;;;;;5021034;28;20075;-74
2024/04/01 03:59:58;;;;;;;3.00;1.83;;;16.10;79.80;;;;;;5025324;28;20410;-74
2024/04/01 04:02:24;;;;;;;3.07;1.73;;;16.10;79.80;;;;;;5025778;28;20033;-73
2024/04/01 04:04:49;;;;;;;3.93;2.20;;;16.10;79.70;;;;;;5019983;28;20157;-74
2024/04/01 04:07:15;;;;;;;2.93;2.10;;;16.10;79.60;;;;;;5015614;28;20026;-73
2024/04/01 04:09:41;;;;;;;2.67;2.00;;;16.10;79.60;;;;;;5021603;28;20634;-73
2024/04/01 04:12:07;;;;;;;2.73;1.90;;;16.10;79.80;;;;;;5026441;28;20033;-74
2024/04/01 04:14:32;;;;;;;2.83;2.00;;;16.00;79.80;;;;;;5028589;28;20036;-73
2024/04/01 04:16:59;;;;;;;3.05;1.98;;;16.10;79.80;;;;;;5018864;28;20029;-74
2024/04/01 04:19:25;;;;;;;6.03;2.43;;;16.00;79.90;;;;;;5024385;28;20517;-74
2024/04/01 04:21:51;;;;;;;2.08;1.42;;;16.10;79.80;;;;;;5024106;28;20033;-73
2024/04/01 04:24:17;;;;;;;2.90;1.93;;;16.00;79.80;;;;;;5022170;28;20037;-73
2024/04/01 04:26:43;;;;;;;2.70;1.60;;;16.10;79.80;;;;;;5028022;28;20258;-73
2024/04/01 04:29:09;;;;;;;2.37;1.70;;;16.10;79.90;;;;;;5027081;28;20026;-74
2024/04/01 04:31:35;;;;;;;2.45;1.60;;;16.10;79.80;;;;;;5021068;28;20091;-73
2024/04/01 04:34:01;;;;;;;3.13;2.17;;;16.00;79.80;;;;;;5025905;28;20025;-74
2024/04/01 04:36:26;;;;;;;2.70;1.80;;;16.00;79.70;;;;;;5022125;28;20525;-73
2024/04/01 04:38:55;;;;;;;2.30;2.00;;;16.00;79.60;;;;;;5027036;28;20036;-73
2024/04/01 04:41:22;;;;;;;2.05;1.75;;;16.00;79.60;;;;;;5024028;28;20029;-74
2024/04/01 04:43:48;;;;;;;3.17;2.03;;;16.00;79.60;;;;;;5024137;28;20368;-74
2024/04/01 04:46:14;;;;;;;1.80;1.70;;;16.00;79.60;;;;;;5018910;28;20038;-74
2024/04/01 04:48:41;;;;;;;1.98;1.70;;;16.00;79.60;;;;;;5020195;28;20410;-73
2024/04/01 04:51:07;;;;;;;2.35;1.60;;;16.00;79.70;;;;;;5028699;28;20021;-74
2024/04/01 04:53:36;;;;;;;2.53;1.80;;;16.00;79.70;;;;;;5023282;28;20037;-74
2024/04/01 04:56:04;;;;;;;2.35;1.60;;;16.00;79.70;;;;;;5022845;28;20040;-74
2024/04/01 04:58:30;;;;;;;2.60;1.90;;;16.00;79.80;;;;;;5026282;28;20136;-74
2024/04/01 05:00:56;;;;;;;3.45;1.67;;;16.00;79.60;;;;;;5025606;28;20377;-74
2024/04/01 05:03:22;;;;;;;2.30;1.80;;;15.90;79.80;;;;;;5021715;28;20140;-74
2024/04/01 05:05:47;;;;;;;3.40;1.90;;;16.00;79.70;;;;;;5019048;28;20534;-74
2024/04/01 05:08:13;;;;;;;3.60;1.87;;;15.90;79.80;;;;;;5028654;28;20026;-74
2024/04/01 05:10:39;;;;;;;3.10;1.60;;;15.90;79.70;;;;;;5019288;28;20607;-73
2024/04/01 05:13:05;;;;;;;2.83;1.80;;;15.90;79.70;;;;;;5021199;28;20053;-74
2024/04/01 05:15:30;;;;;;;2.00;1.80;;;15.90;79.60;;;;;;5015048;28;20263;-74
2024/04/01 05:17:57;;;;;;;3.33;1.83;;;15.90;79.60;;;;;;5020198;28;20048;-74
2024/04/01 05:20:23;;;;;;;2.70;1.60;;;15.90;79.50;;;;;;5023213;28;20097;-73
2024/04/01 05:22:48;;;;;;;3.17;1.88;;;15.90;79.50;;;;;;5018367;28;20430;-73
2024/04/01 05:25:14;;;;;;;4.60;1.57;;;15.90;79.40;;;;;;5022706;28;20026;-73
2024/04/01 05:27:40;;;;;;;3.47;1.93;;;15.90;79.50;;;;;;5016427;28;20116;-74
2024/04/01 05:30:09;;;;;;;1.97;1.67;;;15.90;79.50;;;;;;5020942;28;20037;-73
2024/04/01 05:32:36;;;;;;;2.10;1.50;;;15.90;79.60;;;;;;5018105;28;20022;-74
2024/04/01 05:35:05;;;;;;;4.43;1.52;;;15.90;79.60;;;;;;5025792;28;20040;-73
2024/04/01 05:37:34;;;;;;;2.42;1.63;;;15.90;79.60;;;;;;5027830;28;20021;-73
2024/04/01 05:40:00;;;;;;;2.15;1.50;;;15.80;79.60;;;;;;5025493;28;20076;-74
2024/04/01 05:42:26;;;;;;;3.37;1.50;;;15.90;79.60;;;;;;5028572;28;20738;-74
2024/04/01 05:44:52;;;;;;;3.60;1.70;;;15.90;79.60;;;;;;5030691;28;20455;-73
2024/04/01 05:47:18;;;;;;;2.53;1.50;;;15.80;79.60;;;;;;5023718;28;20040;-74
2024/04/01 05:49:43;;;;;;;3.63;1.53;;;15.90;79.50;;;;;;5031228;28;20029;-74
2024/04/01 05:52:09;;;;;;;1.53;1.43;;;15.80;79.50;;;;;;5023541;28;20107;-74
2024/04/01 05:54:35;;;;;;;1.70;1.40;;;15.80;79.40;;;;;;5023481;28;20022;-73
2024/04/01 05:57:01;;;;;;;1.50;1.40;;;15.80;79.40;;;;;;5025124;28;20524;-73
2024/04/01 05:59:27;;;;;;;3.50;1.30;;;15.80;79.30;;;;;;5025410;28;20079;-73
2024/04/01 06:01:53;;;;;;;;;;;15.80;79.30;;;;;;5024443;28;20025;-74
2024/04/01 06:04:20;;;;;;;1.95;1.30;;;15.80;79.20;;;;;;5022654;28;19914;-74
2024/04/01 06:06:46;;;;;;;1.77;1.50;;;15.80;79.40;;;;;;5023844;28;20111;-74
2024/04/01 06:09:16;;;;;;;2.65;1.30;;;15.80;79.30;;;;;;5025669;28;20102;-73
2024/04/01 06:11:42;;;;;;;1.73;1.30;;;15.80;79.20;;;;;;5027021;28;20454;-75
2024/04/01 06:14:09;;;;;;;1.85;1.33;;;15.80;79.30;;;;;;5025530;28;20025;-75
2024/04/01 06:16:35;;;;;;;2.28;1.42;;;15.80;79.30;;;;;;5021900;28;20029;-73
2024/04/01 06:19:01;;;;;;;3.08;1.38;;;15.80;79.30;;;;;;5027514;28;20073;-74
2024/04/01 06:21:27;;;;;;;2.20;1.33;;;15.90;79.40;;;;;;5023944;28;20131;-75
2024/04/01 06:23:52;;;;;;;2.60;1.50;;;16.00;78.90;;;;;;5027139;28;20112;-74
2024/04/01 06:26:18;;;;;;;3.27;1.40;;;16.00;78.90;;;;;;5026980;28;20029;-74
2024/04/01 06:28:50;;;;;;;1.83;1.50;;;16.00;79.10;;;;;;5029778;28;20037;-74
2024/04/01 06:31:16;;;;;;;7.82;1.77;;;16.00;79.20;;;;;;5023520;28;20459;-74
2024/04/01 06:33:42;;;;;;;21.52;2.92;;;16.00;79.00;;;;;;5025649;28;20243;-74
2024/04/01 06:36:10;;;;;;;13.60;2.63;;;16.10;78.90;;;;;;5024618;28;20147;-74
2024/04/01 06:38:36;;;;;;;18.45;6.65;;;16.10;78.90;;;;;;5030710;28;20154;-74
2024/04/01 06:41:01;;;;;;;9.60;4.40;;;16.10;78.70;;;;;;5027299;28;20239;-75
2024/04/01 06:43:27;;;;;;;15.30;3.57;;;16.10;78.70;;;;;;5027670;28;20737;-75
2024/04/01 06:45:52;;;;;;;11.90;2.93;;;16.10;78.60;;;;;;5028563;28;20050;-74
2024/04/01 06:48:18;;;;;;;45.40;28.47;;;16.10;78.50;;;;;;5026783;28;20022;-74
2024/04/01 06:50:44;;;;;;;11.17;5.60;;;16.20;78.50;;;;;;5027087;28;20482;-74
2024/04/01 06:53:09;;;;;;;16.73;5.07;;;16.20;78.30;;;;;;5025445;28;20028;-75
2024/04/01 06:55:35;;;;;;;10.77;5.27;;;16.20;78.30;;;;;;5031310;28;20033;-75
2024/04/01 06:58:01;;;;;;;13.00;4.90;;;16.20;78.30;;;;;;5025442;28;20521;-74
2024/04/01 07:00:26;;;;;;;8.03;4.50;;;16.30;78.20;;;;;;5021698;28;20056;-75
2024/04/01 07:02:52;;;;;;;11.57;4.13;;;16.40;77.90;;;;;;5023910;28;20033;-75
2024/04/01 07:05:18;;;;;;;9.70;3.93;;;16.40;77.80;;;;;;5029862;28;20112;-74
2024/04/01 07:07:44;;;;;;;10.13;3.87;;;16.40;77.90;;;;;;5024004;28;20375;-74
2024/04/01 07:10:11;;;;;;;13.80;3.70;;;16.40;77.90;;;;;;5025339;28;20022;-74
2024/04/01 07:12:37;;;;;;;16.45;3.53;;;16.40;77.90;;;;;;5021515;28;20029;-75
2024/04/01 07:15:03;;;;;;;15.63;3.63;;;16.40;77.70;;;;;;5025438;28;20041;-75
2024/04/01 07:17:29;;;;;;;13.50;3.47;;;16.50;77.50;;;;;;5014399;28;20379;-74
2024/04/01 07:19:54;;;;;;;11.57;3.10;;;16.60;77.30;;;;;;5022009;28;20034;-74
2024/04/01 07:22:20;;;;;;;10.83;3.40;;;16.60;77.40;;;;;;5026588;28;20036;-74
2024/04/01 07:24:46;;;;;;;10.03;3.20;;;16.60;77.20;;;;;;5024879;28;20040;-73
2024/04/01 07:27:12;;;;;;;87.80;35.33;;;16.60;77.30;;;;;;5029185;28;20438;-75
2024/04/01 07:29:37;;;;;;;35.77;9.60;;;16.60;77.40;;;;;;5027434;28;20029;-75
2024/04/01 07:32:03;;;;;;;21.93;9.07;;;16.60;77.50;;;;;;5025029;28;20068;-74
2024/04/01 07:34:29;;;;;;;29.35;8.68;;;16.50;77.70;;;;;;5023010;28;20029;-75
2024/04/01 07:36:55;;;;;;;22.67;9.23;;;16.60;77.70;;;;;;5030617;28;20032;-75
2024/04/01 07:39:21;;;;;;;23.47;7.77;;;16.60;77.60;;;;;;5018269;28;20029;-74
2024/04/01 07:41:46;;;;;;;17.97;6.70;;;16.60;77.60;;;;;;5022917;28;20502;-74
2024/04/01 07:44:12;;;;;;;23.00;7.83;;;16.60;77.60;;;;;;5027935;28;20038;-74
2024/04/01 07:46:38;;;;;;;22.77;8.00;;;16.50;77.70;;;;;;5024834;28;20355;-74
2024/04/01 07:49:04;;;;;;;12.93;5.35;;;16.60;77.80;;;;;;5022493;28;20030;-74
2024/04/01 07:51:30;;;;;;;29.77;6.03;;;16.60;77.70;;;;;;5022063;28;20032;-74
2024/04/01 07:53:56;;;;;;;12.33;5.60;;;16.60;77.70;;;;;;5027432;28;20044;-74
2024/04/01 07:56:23;;;;;;;9.13;4.45;;;16.60;77.80;;;;;;5017633;28;20487;-75
2024/04/01 07:58:49;;;;;;;;;;;16.60;77.60;;;;;;5023507;28;20054;-73
2024/04/01 08:01:14;;;;;;;106.65;37.58;;;16.60;77.90;;;;;;5024727;28;19913;-74
2024/04/01 08:03:40;;;;;;;23.50;8.97;;;16.60;77.90;;;;;;5020184;28;20155;-74
2024/04/01 08:06:06;;;;;;;31.03;9.53;;;16.70;77.70;;;;;;5022327;28;20459;-74
2024/04/01 08:08:32;;;;;;;24.97;9.37;;;16.70;78.00;;;;;;5022419;28;20033;-74
2024/04/01 08:10:57;;;;;;;24.00;9.23;;;16.70;78.00;;;;;;5028337;28;20120;-74
2024/04/01 08:13:23;;;;;;;22.73;8.30;;;16.80;78.10;;;;;;5022160;28;20263;-74
2024/04/01 08:16:03;;;;;;;27.63;8.87;;;16.80;78.10;;;;;;5019955;28;20022;-74
2024/04/01 08:18:29;;;;;;;66.78;36.28;;;16.80;78.20;;;;;;5026314;28;20336;-74
2024/04/01 08:20:56;;;;;;;25.50;13.17;;;16.80;78.40;;;;;;5022463;28;20018;-73
2024/04/01 08:23:22;;;;;;;27.75;12.30;;;16.80;78.40;;;;;;5024470;28;20029;-73
2024/04/01 08:25:48;;;;;;;17.92;9.80;;;16.90;78.10;;;;;;5024750;28;20037;-73
2024/04/01 08:28:14;;;;;;;26.17;10.57;;;16.90;77.80;;;;;;5028675;28;20386;-73
2024/04/01 08:30:39;;;;;;;23.70;10.07;;;16.90;77.70;;;;;;5027525;28;20025;-73
2024/04/01 08:33:05;;;;;;;16.70;9.07;;;16.90;77.60;;;;;;5020033;28;20025;-73
2024/04/01 08:35:31;;;;;;;24.93;9.07;;;16.90;77.70;;;;;;5028315;28;20037;-73
2024/04/01 08:37:57;;;;;;;17.30;8.93;;;16.90;77.80;;;;;;5024272;28;20398;-73
2024/04/01 08:40:23;;;;;;;22.83;9.20;;;17.00;77.80;;;;;;5025163;28;20273;-73
2024/04/01 08:42:54;;;;;;;18.75;8.07;;;17.00;77.80;;;;;;5026640;28;20360;-73
2024/04/01 08:45:21;;;;;;;20.83;7.75;;;17.00;77.70;;;;;;5025271;28;20033;-73
2024/04/01 08:47:52;;;;;;;20.67;8.55;;;17.00;77.80;;;;;;5019185;28;20037;-73
2024/04/01 08:50:23;;;;;;;13.07;7.25;;;17.10;77.70;;;;;;5026218;28;20164;-74
2024/04/01 08:52:53;;;;;;;15.10;7.53;;;17.10;77.70;;;;;;5019449;28;20157;-74
2024/04/01 08:55:20;;;;;;;14.90;6.70;;;17.10;77.70;;;;;;5025699;28;20055;-73
2024/04/01 08:57:47;;;;;;;17.02;7.10;;;17.10;77.80;;;;;;5026603;28;20116;-73
2024/04/01 09:00:12;;;;;;;;;;;17.20;77.80;;;;;;5027335;28;20025;-73
2024/04/01 09:02:38;;;;;;;11.52;6.22;;;17.20;77.80;;;;;;5021657;28;20004;-74
2024/04/01 09:05:04;;;;;;;16.13;7.25;;;17.20;78.00;;;;;;5025712;28;20125;-74
2024/04/01 09:07:30;;;;;;;60.63;34.33;;;17.20;78.00;;;;;;5023267;28;20029;-74
2024/04/01 09:09:56;;;;;;;23.77;12.77;;;17.30;77.90;;;;;;5028235;28;20017;-74
2024/04/01 09:12:23;;;;;;;36.00;16.47;;;17.30;78.00;;;;;;5022054;28;20033;-74
2024/04/01 09:14:48;;;;;;;28.77;13.45;;;17.30;78.00;;;;;;5028017;28;20026;-73
2024/04/01 09:17:24;;;;;;;28.10;14.10;;;17.40;77.80;;;;;;5031952;28;20401;-73
2024/04/01 09:19:50;;;;;;;27.17;13.23;;;17.40;77.80;;;;;;5022078;28;20030;-74
2024/04/01 09:22:15;;;;;;;19.97;11.83;;;17.40;77.90;;;;;;5019543;28;20542;-73
2024/04/01 09:24:41;;;;;;;23.10;11.23;;;17.40;77.80;;;;;;5022424;28;20403;-73
2024/04/01 09:27:07;;;;;;;17.73;10.02;;;17.40;77.80;;;;;;5022472;28;20500;-75
2024/04/01 09:29:33;;;;;;;28.67;10.30;;;17.50;78.00;;;;;;5026604;28;20030;-73
2024/04/01 09:32:00;;;;;;;28.07;10.97;;;17.40;78.00;;;;;;5029110;28;20025;-74
2024/04/01 09:34:29;;;;;;;22.48;10.15;;;17.50;78.10;;;;;;5016701;28;20454;-74
2024/04/01 09:36:55;;;;;;;19.55;9.77;;;17.50;78.10;;;;;;5024754;28;20030;-74
2024/04/01 09:39:20;;;;;;;24.30;9.83;;;17.50;78.20;;;;;;5021611;28;20099;-74
2024/04/01 09:41:48;;;;;;;22.57;10.70;;;17.50;78.20;;;;;;5027058;28;20760;-74
2024/04/01 09:44:14;;;;;;;18.48;8.93;;;17.60;78.00;;;;;;5023326;28;20038;-75
2024/04/01 09:46:39;;;;;;;43.10;18.90;;;17.60;78.30;;;;;;5020987;28;20034;-74
2024/04/01 09:49:06;;;;;;;18.83;10.50;;;17.70;78.70;;;;;;5017927;28;20732;-74
2024/04/01 09:51:33;;;;;;;19.13;12.55;;;17.70;78.60;;;;;;5026202;28;20025;-75
2024/04/01 09:53:58;;;;;;;17.80;10.48;;;17.70;78.70;;;;;;5027736;28;20052;-76
2024/04/01 09:57:19;;;;;;;26.07;10.77;;;17.70;78.80;;;;;;5025894;28;20519;-74
2024/04/01 10:00:05;;;;;;;19.52;9.75;;;17.80;78.80;;;;;;4981827;28;20175;-74
2024/04/01 10:02:42;;;;;;;20.13;9.80;;;17.80;78.80;;;;;;5017767;28;20053;-76
2024/04/01 10:05:30;;;;;;;19.60;10.02;;;17.80;79.00;;;;;;5021717;28;20025;-74
2024/04/01 10:08:22;;;;;;;16.10;9.43;;;17.80;79.10;;;;;;5026990;28;20485;-73
2024/04/01 10:11:25;;;;;;;14.57;8.73;;;17.80;79.30;;;;;;5018224;28;20041;-73
2024/04/01 10:14:08;;;;;;;16.58;8.10;;;17.80;79.50;;;;;;5021579;28;20061;-74
2024/04/01 10:17:04;;;;;;;15.35;8.52;;;17.80;79.50;;;;;;5018684;28;20489;-72
2024/04/01 10:19:40;;;;;;;21.08;9.00;;;17.80;79.80;;;;;;5021419;28;20041;-74
2024/04/01 10:22:29;;;;;;;13.15;7.90;;;17.80;79.90;;;;;;5017501;28;20456;-74
2024/04/01 10:25:17;;;;;;;20.50;8.05;;;17.80;80.10;;;;;;5015893;28;20069;-73
2024/04/01 10:28:05;;;;;;;15.75;7.80;;;17.80;80.10;;;;;;5025383;28;20115;-73
2024/04/01 10:30:40;;;;;;;15.25;7.38;;;17.90;79.80;;;;;;5016883;28;20160;-73
2024/04/01 10:33:24;;;;;;;12.52;7.45;;;17.90;79.70;;;;;;5013806;28;20455;-73
2024/04/01 10:36:08;;;;;;;13.55;7.22;;;18.00;79.40;;;;;;5020649;28;20061;-73
2024/04/01 10:39:07;;;;;;;10.05;7.05;;;18.00;79.30;;;;;;5017366;28;20136;-73
2024/04/01 10:41:39;;;;;;;25.70;9.70;;;18.00;79.20;;;;;;5024843;28;20034;-73
2024/04/01 10:45:02;;;;;;;33.78;12.68;;;18.00;79.30;;;;;;5027812;28;20025;-74
2024/04/01 10:47:54;;;;;;;55.63;16.73;;;18.00;79.20;;;;;;4989361;28;20046;-74
2024/04/01 10:50:34;;;;;;;55.83;20.52;;;18.00;79.10;;;;;;4979351;28;20475;-75
2024/04/01 10:53:28;;;;;;;95.43;29.92;;;18.00;79.40;;;;;;5014417;28;20033;-74
2024/04/01 10:56:12;;;;;;;88.35;29.48;;;18.00;79.30;;;;;;5020963;28;20457;-73
2024/04/01 10:58:51;;;;;;;107.65;34.40;;;18.00;79.10;;;;;;5029352;28;20095;-73
2024/04/01 11:01:55;;;;;;;111.38;35.25;;;18.00;79.10;;;;;;5029915;28;20033;-74
2024/04/01 11:04:43;;;;;;;110.63;38.15;;;18.10;79.10;;;;;;5018735;28;20098;-74
2024/04/01 11:07:21;;;;;;;144.90;39.85;;;18.10;79.00;;;;;;5000958;28;20046;-74
2024/04/01 11:10:32;;;;;;;137.77;37.25;;;18.10;79.10;;;;;;5028744;28;20025;-75
2024/04/01 11:13:03;;;;;;;138.10;40.70;;;18.10;79.70;;;;;;5030071;28;20038;-74
2024/04/01 11:15:29;;;;;;;144.40;40.10;;;18.20;79.60;;;;;;5021679;28;20046;-74
2024/04/01 11:18:13;;;;;;;146.00;40.67;;;18.20;79.50;;;;;;5026374;28;20490;-74
2024/04/01 11:20:55;;;;;;;167.85;45.67;;;18.20;79.50;;;;;;5018879;28;20081;-74
2024/04/01 11:23:39;;;;;;;138.18;39.65;;;18.20;79.60;;;;;;5026210;28;20030;-73
2024/04/01 11:26:39;;;;;;;153.25;47.33;;;18.30;79.80;;;;;;5020007;28;20109;-74
2024/04/01 11:29:16;;;;;;;129.77;41.63;;;18.20;80.10;;;;;;5018240;28;20518;-74
2024/04/01 11:32:16;;;;;;;141.05;42.92;;;18.20;80.20;;;;;;5023496;28;20025;-74
2024/04/01 11:35:11;;;;;;;134.32;37.08;;;18.30;80.20;;;;;;5004282;28;20034;-75
2024/04/01 11:38:02;;;;;;;145.65;42.30;;;18.30;80.10;;;;;;4975932;28;20133;-74
2024/04/01 11:40:31;;;;;;;159.85;45.67;;;18.40;79.90;;;;;;4998915;28;20061;-73
2024/04/01 11:43:05;;;;;;;129.85;38.33;;;18.40;79.90;;;;;;4988054;28;20030;-73
2024/04/01 11:45:36;;;;;;;121.10;36.75;;;18.40;79.70;;;;;;4985604;28;20038;-74
2024/04/01 11:48:03;;;;;;;121.03;34.60;;;18.40;79.30;;;;;;4998802;28;20026;-74
2024/04/01 11:50:28;;;;;;;105.47;33.25;;;18.40;79.10;;;;;;5001460;28;20705;-74
2024/04/01 11:53:05;;;;;;;113.53;32.40;;;18.30;79.20;;;;;;5002547;28;20116;-74
2024/04/01 11:55:31;;;;;;;;;;;18.30;79.30;;;;;;4976448;28;20067;-74
2024/04/01 11:58:15;;;;;;;106.05;30.95;;;18.30;79.40;;;;;;4989122;28;19914;-75
2024/04/01 12:00:58;;;;;;;99.25;28.70;;;18.30;79.20;;;;;;4997882;28;20383;-75
2024/04/01 12:03:39;;;;;;;92.88;28.90;;;18.30;79.10;;;;;;4981200;28;20132;-74
2024/04/01 12:06:06;;;;;;;90.30;28.17;;;18.40;79.10;;;;;;4996565;28;20080;-74
2024/04/01 12:08:33;;;;;;;85.15;27.45;;;18.40;79.10;;;;;;4997531;28;20103;-74
2024/04/01 12:11:02;;;;;;;86.22;27.15;;;18.30;79.10;;;;;;5020298;28;20382;-74
2024/04/01 12:13:28;;;;;;;89.72;27.27;;;18.30;79.10;;;;;;5017436;28;20078;-75
2024/04/01 12:15:54;;;;;;;86.80;26.53;;;18.40;79.00;;;;;;5030110;28;20096;-74
2024/04/01 12:18:21;;;;;;;82.65;25.77;;;18.40;78.80;;;;;;5021204;28;20033;-75
2024/04/01 12:20:52;;;;;;;82.35;24.77;;;18.40;78.70;;;;;;5025366;28;20029;-76
2024/04/01 12:23:21;;;;;;;78.97;22.95;;;18.40;78.90;;;;;;5025715;28;20040;-76
2024/04/01 12:25:48;;;;;;;72.82;22.08;;;18.40;78.80;;;;;;5020384;28;20046;-76
2024/04/01 12:28:14;;;;;;;73.03;20.27;;;18.50;78.60;;;;;;5017838;28;20056;-76
2024/04/01 12:30:43;;;;;;;;;;;18.60;78.60;;;;;;5026203;28;20030;-76
2024/04/01 12:33:11;;;;;;;66.85;21.30;;;18.60;78.30;;;;;;5019541;28;19910;-75
2024/04/01 12:35:38;;;;;;;68.88;20.58;;;18.60;78.40;;;;;;5024680;28;20079;-77
2024/04/01 12:38:04;;;;;;;;;;;18.50;78.60;;;;;;5027658;28;20489;-75
2024/04/01 12:40:46;;;;;;;70.10;20.83;;;18.50;79.00;;;;;;5027524;28;19912;-75
2024/04/01 12:43:16;;;;;;;58.53;18.33;;;18.60;79.00;;;;;;5013920;28;20029;-77
2024/04/01 12:45:46;;;;;;;61.63;18.73;;;18.70;78.70;;;;;;5024246;28;20033;-77
2024/04/01 12:48:14;;;;;;;53.70;18.33;;;18.70;78.50;;;;;;5026525;28;20025;-75
2024/04/01 12:50:51;;;;;;;93.15;36.25;;;18.80;78.50;;;;;;5016591;28;20033;-75